Time;durP1;ratioP1;P1;durP2;ratioP2;P2;SDS_P1;SDS_P2;PMS_P1;PMS_P2;Temp;Humidity;BMP_temperature;BMP_pressure;BME280_temperature;BME280_humidity;BME280_pressure;Samples;Min_cycle;Max_cycle;Signal;HPM_P1;HPM_P2
2022/10/19 00:00:22;;;;;;;2.73;2.53;;;19.90;73.20;20.90;101956.00;;;;5069183;28;20176;-51
2022/10/19 00:02:47;;;;;;;2.57;2.37;;;19.90;73.20;20.90;101961.00;;;;5068489;28;20170;-52
2022/10/19 00:05:13;;;;;;;2.80;2.60;;;19.90;73.20;20.80;101951.00;;;;5068162;28;20195;-50
2022/10/19 00:07:39;;;;;;;4.07;2.60;;;19.80;73.10;20.90;101967.00;;;;5069201;28;20192;-52
2022/10/19 00:10:05;;;;;;;2.57;2.37;;;19.80;73.10;20.80;101950.00;;;;5076569;28;20173;-51
2022/10/19 00:12:31;;;;;;;4.13;2.50;;;19.80;73.10;20.80;101954.00;;;;5072552;28;20203;-51
2022/10/19 00:14:57;;;;;;;3.17;2.60;;;19.80;73.10;20.80;101943.00;;;;5068249;28;20235;-51
2022/10/19 00:17:22;;;;;;;2.90;2.47;;;19.80;73.30;20.80;101944.00;;;;5068448;28;20179;-50
2022/10/19 00:19:48;;;;;;;3.70;2.60;;;19.80;73.20;20.80;101952.00;;;;5068201;28;20179;-50
2022/10/19 00:22:14;;;;;;;2.57;2.37;;;19.80;73.10;20.80;101953.00;;;;5067195;28;20167;-51
2022/10/19 00:24:40;;;;;;;3.00;2.70;;;19.80;73.10;20.80;101953.00;;;;5067922;28;20641;-51
2022/10/19 00:27:05;;;;;;;2.50;2.30;;;19.80;73.10;20.80;101950.00;;;;5068017;28;20268;-50
2022/10/19 00:29:31;;;;;;;2.77;2.47;;;19.70;73.10;20.80;101945.00;;;;5068037;28;20207;-50
2022/10/19 00:31:57;;;;;;;2.90;2.60;;;19.70;73.10;20.80;101955.00;;;;5068368;28;20172;-50
2022/10/19 00:34:23;;;;;;;2.90;2.60;;;19.70;73.00;20.70;101950.00;;;;5067866;28;20211;-51
2022/10/19 00:36:48;;;;;;;2.60;2.40;;;19.70;73.10;20.70;101947.00;;;;5100610;28;20255;-51
2022/10/19 00:39:15;;;;;;;3.57;2.50;;;19.80;73.20;20.70;101950.00;;;;5067929;28;20188;-51
2022/10/19 00:41:41;;;;;;;2.73;2.47;;;19.70;73.20;20.70;101953.00;;;;5066949;28;20180;-51
2022/10/19 00:44:27;;;;;;;2.60;2.40;;;19.70;73.10;20.70;101948.00;;;;5067793;28;20163;-51
2022/10/19 00:46:53;;;;;;;2.53;2.30;;;19.60;73.10;20.60;101947.00;;;;5068057;28;20577;-51
2022/10/19 00:49:21;;;;;;;2.80;2.50;;;19.70;73.10;20.60;101944.00;;;;5100326;28;20197;-50
2022/10/19 00:51:50;;;;;;;2.67;2.47;;;19.60;73.20;20.60;101959.00;;;;5083570;28;20171;-50
2022/10/19 00:54:15;;;;;;;2.50;2.30;;;19.60;73.10;20.60;101948.00;;;;5066240;28;20178;-51
2022/10/19 00:56:42;;;;;;;2.77;2.40;;;19.60;73.10;20.60;101951.00;;;;5066476;28;20200;-51
2022/10/19 00:59:08;;;;;;;2.70;2.50;;;19.60;73.10;20.60;101956.00;;;;5070104;28;20197;-51
2022/10/19 01:01:34;;;;;;;2.43;2.23;;;19.60;73.00;20.60;101953.00;;;;5087630;28;20176;-50
2022/10/19 01:04:00;;;;;;;2.70;2.50;;;19.60;73.00;20.60;101948.00;;;;5071573;28;20238;-50
2022/10/19 01:06:26;;;;;;;2.70;2.50;;;19.60;73.10;20.60;101954.00;;;;5081836;28;20220;-54
2022/10/19 01:08:52;;;;;;;2.87;2.47;;;19.50;72.90;20.60;101949.00;;;;5101159;28;20212;-51
2022/10/19 01:11:21;;;;;;;2.93;2.53;;;19.60;73.10;20.60;101938.00;;;;5070590;28;20219;-51
2022/10/19 01:13:58;;;;;;;3.07;2.30;;;19.50;73.00;20.50;101926.00;;;;5070012;28;20181;-51
2022/10/19 01:16:51;;;;;;;2.50;2.30;;;19.50;73.00;20.50;101933.00;;;;5087806;28;20201;-50
2022/10/19 01:19:38;;;;;;;2.77;2.57;;;19.50;72.90;20.50;101933.00;;;;5088984;28;20207;-51
2022/10/19 01:22:41;;;;;;;2.50;2.30;;;19.50;72.90;20.50;101937.00;;;;5070046;28;20159;-51
2022/10/19 01:25:47;;;;;;;2.53;2.33;;;19.50;72.90;20.40;101936.00;;;;5070434;28;20571;-51
2022/10/19 01:28:38;;;;;;;2.53;2.33;;;19.50;73.10;20.40;101933.00;;;;5048968;28;20203;-51
2022/10/19 01:31:10;;;;;;;2.40;2.20;;;19.40;72.90;20.40;101950.00;;;;5071532;28;20208;-50
2022/10/19 01:33:51;;;;;;;2.30;2.10;;;19.40;72.90;20.40;101938.00;;;;5103726;28;20170;-51
2022/10/19 01:36:46;;;;;;;2.60;2.40;;;19.40;73.00;20.40;101941.00;;;;5071091;28;20185;-51
2022/10/19 01:39:41;;;;;;;2.80;2.60;;;19.40;72.90;20.40;101942.00;;;;5071364;28;20195;-49
2022/10/19 01:42:27;;;;;;;2.37;2.20;;;19.40;72.90;20.30;101949.00;;;;5087798;28;20188;-51
2022/10/19 01:45:12;;;;;;;2.23;2.10;;;19.40;73.00;20.30;101939.00;;;;5070738;28;20171;-50
2022/10/19 01:47:49;;;;;;;2.17;1.97;;;19.30;72.90;20.30;101937.00;;;;5069732;28;20178;-50
2022/10/19 01:50:38;;;;;;;2.40;2.20;;;19.40;73.00;20.30;101931.00;;;;5087550;28;20165;-52
2022/10/19 01:53:05;;;;;;;2.60;2.13;;;19.30;72.90;20.30;101928.00;;;;5088415;28;20527;-50
2022/10/19 01:55:31;;;;;;;2.10;2.00;;;19.30;72.90;20.30;101931.00;;;;5069353;28;20211;-50
2022/10/19 01:58:03;;;;;;;2.10;2.00;;;19.30;72.90;20.30;101922.00;;;;5086123;28;20199;-52
2022/10/19 02:00:29;;;;;;;2.50;2.30;;;19.30;72.90;20.30;101915.00;;;;5070658;28;20506;-51
2022/10/19 02:02:55;;;;;;;2.57;2.30;;;19.30;72.90;20.30;101917.00;;;;5086898;28;20173;-50
2022/10/19 02:05:25;;;;;;;2.20;2.10;;;19.30;72.90;20.30;101908.00;;;;5053003;28;20178;-50
2022/10/19 02:07:56;;;;;;;2.20;2.00;;;19.20;72.80;20.20;101913.00;;;;5053445;28;20202;-50
2022/10/19 02:10:22;;;;;;;2.40;2.20;;;19.20;72.80;20.20;101913.00;;;;5070078;28;20255;-51
2022/10/19 02:12:48;;;;;;;2.13;1.93;;;19.30;72.90;20.20;101909.00;;;;5086253;28;20238;-52
2022/10/19 02:15:17;;;;;;;2.40;2.20;;;19.20;72.80;20.20;101903.00;;;;5070101;28;20662;-50
2022/10/19 02:17:46;;;;;;;2.37;2.17;;;19.20;72.90;20.20;101889.00;;;;5097209;28;20201;-50
2022/10/19 02:20:12;;;;;;;2.60;2.40;;;19.20;72.80;20.20;101912.00;;;;5097758;28;20256;-50
2022/10/19 02:22:37;;;;;;;2.23;2.03;;;19.20;72.80;20.20;101897.00;;;;5072102;28;20266;-50
2022/10/19 02:25:04;;;;;;;2.40;2.20;;;19.20;72.80;20.20;101900.00;;;;5073679;28;20239;-52
2022/10/19 02:27:29;;;;;;;2.10;2.00;;;19.20;72.80;20.20;101898.00;;;;5074386;28;20672;-50
2022/10/19 02:29:55;;;;;;;2.20;2.10;;;19.20;72.80;20.20;101908.00;;;;5071802;28;20198;-50
2022/10/19 02:32:21;;;;;;;2.20;2.10;;;19.10;72.70;20.10;101892.00;;;;5070681;28;20174;-50
2022/10/19 02:34:47;;;;;;;2.33;2.07;;;19.10;72.70;20.10;101901.00;;;;5069963;28;20205;-50
2022/10/19 02:37:12;;;;;;;2.43;2.10;;;19.10;72.80;20.10;101900.00;;;;5102741;28;20673;-50
2022/10/19 02:39:38;;;;;;;2.33;2.13;;;19.10;73.00;20.10;101892.00;;;;5106539;28;20205;-51
2022/10/19 02:42:19;;;;;;;2.90;2.00;;;19.10;73.00;20.10;101887.00;;;;5083504;28;20177;-50
2022/10/19 02:45:18;;;;;;;3.30;2.20;;;19.10;73.00;20.10;101890.00;;;;5084341;28;20169;-52
2022/10/19 02:47:54;;;;;;;2.10;1.90;;;19.10;73.10;20.10;101870.00;;;;5058439;28;20700;-52
2022/10/19 02:50:20;;;;;;;2.30;2.10;;;19.10;73.00;20.10;101872.00;;;;5069289;28;20266;-52
2022/10/19 02:52:46;;;;;;;2.23;2.13;;;19.10;72.90;20.10;101878.00;;;;5068710;28;20179;-51
2022/10/19 02:55:11;;;;;;;2.30;2.10;;;19.00;72.90;20.10;101880.00;;;;5069831;28;20659;-51
2022/10/19 02:57:37;;;;;;;2.30;2.10;;;19.00;72.90;20.10;101872.00;;;;5070422;28;20518;-50
2022/10/19 03:00:06;;;;;;;2.30;2.10;;;19.00;72.80;20.00;101873.00;;;;5069693;28;20669;-50
2022/10/19 03:02:32;;;;;;;1.90;1.80;;;19.00;72.90;20.00;101872.00;;;;5069897;28;20185;-50
2022/10/19 03:04:58;;;;;;;2.10;2.00;;;19.00;72.80;20.00;101865.00;;;;5069316;28;20173;-51
2022/10/19 03:07:24;;;;;;;2.33;1.90;;;19.00;72.70;20.00;101874.00;;;;5069903;28;20174;-50
2022/10/19 03:09:50;;;;;;;2.17;1.90;;;19.00;72.70;20.00;101872.00;;;;5069454;28;20599;-50
2022/10/19 03:12:15;;;;;;;2.00;1.90;;;19.00;72.70;20.00;101869.00;;;;5069471;28;20220;-51
2022/10/19 03:14:41;;;;;;;2.10;2.00;;;19.00;72.70;20.00;101872.00;;;;5068983;28;20208;-49
2022/10/19 03:17:07;;;;;;;2.10;1.90;;;18.90;72.60;20.00;101870.00;;;;5069578;28;20181;-50
2022/10/19 03:19:34;;;;;;;4.30;2.00;;;18.90;72.60;20.00;101861.00;;;;5100837;28;20871;-51
2022/10/19 03:21:59;;;;;;;4.53;2.00;;;18.90;72.90;20.00;101869.00;;;;5069098;28;20219;-50
2022/10/19 03:24:25;;;;;;;6.50;2.27;;;18.90;72.80;19.90;101870.00;;;;5068913;28;20169;-49
2022/10/19 03:26:51;;;;;;;3.27;2.20;;;18.90;72.70;19.90;101862.00;;;;5069190;28;20193;-50
2022/10/19 03:29:17;;;;;;;2.50;2.20;;;18.90;72.60;19.90;101858.00;;;;5070452;28;20667;-51
2022/10/19 03:31:42;;;;;;;2.13;1.93;;;18.90;72.50;19.90;101860.00;;;;5088815;28;20173;-51
2022/10/19 03:34:08;;;;;;;2.47;2.00;;;18.90;72.50;19.90;101863.00;;;;5089092;28;20180;-50
2022/10/19 03:36:36;;;;;;;2.77;2.00;;;18.80;72.50;19.90;101865.00;;;;5088979;28;20196;-50
2022/10/19 03:39:06;;;;;;;2.40;2.10;;;18.80;72.40;19.90;101874.00;;;;5087626;28;20574;-51
2022/10/19 03:41:33;;;;;;;2.00;1.80;;;18.90;72.60;19.90;101865.00;;;;5089094;28;20177;-51
2022/10/19 03:43:59;;;;;;;2.80;2.00;;;18.80;72.40;19.80;101878.00;;;;5088545;28;20169;-50
2022/10/19 03:46:25;;;;;;;2.30;2.10;;;18.80;72.30;19.80;101886.00;;;;5089403;28;20226;-51
2022/10/19 03:48:51;;;;;;;2.20;2.03;;;18.80;72.20;19.80;101892.00;;;;5089258;28;20507;-51
2022/10/19 03:51:22;;;;;;;3.83;2.00;;;18.70;72.00;19.80;101883.00;;;;5089577;28;20169;-51
2022/10/19 03:53:51;;;;;;;2.20;2.00;;;18.70;72.80;19.80;101893.00;;;;5089227;28;20165;-50
2022/10/19 03:56:19;;;;;;;2.83;2.07;;;18.70;71.90;19.70;101886.00;;;;5089380;28;20223;-51
2022/10/19 03:58:46;;;;;;;4.00;2.30;;;18.70;71.90;19.70;101877.00;;;;5089197;28;20564;-51
2022/10/19 04:01:32;;;;;;;2.37;1.90;;;18.70;71.70;19.70;101885.00;;;;5089140;28;20172;-50
2022/10/19 04:04:00;;;;;;;2.77;2.00;;;18.70;71.60;19.70;101893.00;;;;5089003;28;20320;-50
2022/10/19 04:06:32;;;;;;;3.27;2.00;;;18.70;71.50;19.70;101888.00;;;;5089457;28;20187;-51
2022/10/19 04:08:57;;;;;;;2.27;2.07;;;18.60;71.40;19.70;101891.00;;;;5088400;28;20193;-51
2022/10/19 04:11:26;;;;;;;3.00;2.20;;;18.60;71.30;19.60;101895.00;;;;5087857;28;20169;-51
2022/10/19 04:13:53;;;;;;;2.40;2.00;;;18.60;71.30;19.60;101893.00;;;;5090165;28;20271;-51
2022/10/19 04:16:19;;;;;;;2.53;1.90;;;18.60;71.20;19.60;101896.00;;;;5090966;28;20193;-50
2022/10/19 04:18:45;;;;;;;3.03;2.03;;;18.60;71.30;19.60;101888.00;;;;5090584;28;20185;-51
2022/10/19 04:21:32;;;;;;;2.90;2.13;;;18.60;71.30;19.60;101890.00;;;;5088278;28;20264;-51
2022/10/19 04:24:15;;;;;;;2.33;2.00;;;18.60;71.30;19.60;101892.00;;;;5088485;28;20234;-50
2022/10/19 04:26:48;;;;;;;3.77;1.93;;;18.60;71.30;19.50;101876.00;;;;5088199;28;20177;-51
2022/10/19 04:29:15;;;;;;;3.53;2.10;;;18.50;71.30;19.50;101884.00;;;;5088078;28;20738;-50
2022/10/19 04:31:40;;;;;;;3.67;2.17;;;18.50;71.30;19.50;101876.00;;;;5091292;28;20176;-49
2022/10/19 04:34:06;;;;;;;2.87;2.10;;;18.50;71.30;19.50;101876.00;;;;5093382;28;20310;-51
2022/10/19 04:36:32;;;;;;;3.20;2.27;;;18.50;71.30;19.50;101877.00;;;;5093334;28;20229;-51
2022/10/19 04:38:58;;;;;;;3.23;2.10;;;18.50;71.50;19.50;101879.00;;;;5093095;28;20197;-50
2022/10/19 04:41:24;;;;;;;2.00;1.90;;;18.50;71.50;19.50;101883.00;;;;5093331;28;20717;-49
2022/10/19 04:43:55;;;;;;;2.03;1.83;;;18.50;71.50;19.50;101880.00;;;;5092941;28;20539;-51
2022/10/19 04:46:21;;;;;;;2.10;1.90;;;18.50;71.50;19.50;101884.00;;;;5093405;28;20539;-51
2022/10/19 04:48:47;;;;;;;2.00;1.90;;;18.50;71.50;19.50;101878.00;;;;5093174;28;20193;-50
2022/10/19 04:51:13;;;;;;;2.10;1.90;;;18.50;71.50;19.50;101876.00;;;;5091982;28;20181;-49
2022/10/19 04:53:40;;;;;;;1.90;1.80;;;18.50;71.50;19.50;101870.00;;;;5092962;28;20230;-50
2022/10/19 04:56:08;;;;;;;2.10;1.90;;;18.40;71.40;19.40;101870.00;;;;5092888;28;20197;-49
2022/10/19 04:58:33;;;;;;;2.40;2.00;;;18.40;71.40;19.40;101861.00;;;;5093021;28;20189;-50
2022/10/19 05:01:09;;;;;;;2.17;2.00;;;18.40;71.40;19.40;101857.00;;;;5086532;28;20558;-50
2022/10/19 05:03:35;;;;;;;2.17;1.83;;;18.40;71.40;19.40;101854.00;;;;5084696;28;20176;-50
2022/10/19 05:06:00;;;;;;;3.83;2.00;;;18.40;71.40;19.40;101858.00;;;;5100747;28;20173;-51
2022/10/19 05:08:26;;;;;;;2.60;2.00;;;18.30;71.30;19.40;101853.00;;;;5095746;28;20195;-51
2022/10/19 05:10:52;;;;;;;2.10;1.90;;;18.40;71.40;19.40;101849.00;;;;5091753;28;20212;-49
2022/10/19 05:13:17;;;;;;;2.10;2.00;;;18.30;71.30;19.30;101847.00;;;;5091765;28;20187;-52
2022/10/19 05:15:43;;;;;;;1.83;1.73;;;18.30;71.30;19.30;101846.00;;;;5091503;28;20203;-50
2022/10/19 05:18:09;;;;;;;2.30;1.87;;;18.30;71.30;19.30;101847.00;;;;5091297;28;20755;-51
2022/10/19 05:20:35;;;;;;;3.27;2.10;;;18.30;71.30;19.30;101847.00;;;;5091717;28;20281;-51
2022/10/19 05:23:01;;;;;;;1.87;1.77;;;18.30;71.40;19.30;101838.00;;;;5091968;28;20222;-51
2022/10/19 05:25:28;;;;;;;2.30;2.00;;;18.30;71.30;19.30;101838.00;;;;5091702;28;20165;-50
2022/10/19 05:27:55;;;;;;;2.10;2.00;;;18.30;71.30;19.30;101834.00;;;;5089447;28;20438;-51
2022/10/19 05:30:21;;;;;;;1.90;1.70;;;18.30;71.40;19.30;101842.00;;;;5091883;28;20183;-50
2022/10/19 05:32:49;;;;;;;1.87;1.77;;;18.30;71.40;19.20;101839.00;;;;5089987;28;20172;-51
2022/10/19 05:35:16;;;;;;;1.80;1.60;;;18.20;71.20;19.20;101843.00;;;;5090809;28;20196;-51
2022/10/19 05:37:42;;;;;;;2.27;2.07;;;18.20;71.30;19.20;101835.00;;;;5089767;28;20211;-51
2022/10/19 05:40:10;;;;;;;3.03;1.80;;;18.20;71.30;19.20;101834.00;;;;5091499;28;20531;-51
2022/10/19 05:42:37;;;;;;;2.13;1.90;;;18.20;71.30;19.20;101839.00;;;;5089590;28;20663;-50
2022/10/19 05:45:08;;;;;;;1.90;1.80;;;18.20;71.30;19.20;101831.00;;;;5091755;28;20154;-50
2022/10/19 05:47:34;;;;;;;2.10;1.90;;;18.20;71.30;19.20;101843.00;;;;5091343;28;20188;-52
2022/10/19 05:50:00;;;;;;;3.07;1.90;;;18.20;71.30;19.10;101844.00;;;;5091635;28;20176;-49
2022/10/19 05:52:27;;;;;;;2.17;1.83;;;18.20;71.30;19.10;101839.00;;;;5091753;28;20225;-50
2022/10/19 05:54:54;;;;;;;1.80;1.70;;;18.10;71.30;19.10;101837.00;;;;5073758;28;20692;-50
2022/10/19 05:57:20;;;;;;;2.20;1.80;;;18.10;71.40;19.10;101848.00;;;;5092730;28;20193;-50
2022/10/19 05:59:47;;;;;;;2.00;1.90;;;18.10;71.30;19.10;101850.00;;;;5105905;28;20203;-49
2022/10/19 06:02:13;;;;;;;1.80;1.70;;;18.10;71.30;19.10;101862.00;;;;5105166;28;20184;-50
2022/10/19 06:04:39;;;;;;;1.83;1.73;;;18.10;71.30;19.10;101860.00;;;;5096492;28;20176;-51
2022/10/19 06:07:06;;;;;;;2.03;1.93;;;18.10;71.40;19.10;101854.00;;;;5091989;28;20456;-51
2022/10/19 06:09:35;;;;;;;1.70;1.60;;;18.00;71.20;19.00;101851.00;;;;5090951;28;20802;-50
2022/10/19 06:12:03;;;;;;;1.80;1.70;;;18.00;71.20;19.00;101846.00;;;;5091465;28;20626;-50
2022/10/19 06:14:29;;;;;;;2.13;1.80;;;18.00;71.20;19.00;101845.00;;;;5073216;28;20272;-50
2022/10/19 06:16:55;;;;;;;1.90;1.80;;;18.00;71.20;19.00;101846.00;;;;5090751;28;20197;-50
2022/10/19 06:19:22;;;;;;;2.53;1.97;;;18.00;71.30;19.00;101844.00;;;;5089824;28;20219;-50
2022/10/19 06:21:49;;;;;;;2.10;1.87;;;18.00;71.30;19.00;101829.00;;;;5091004;28;20677;-50
2022/10/19 06:24:15;;;;;;;2.10;1.90;;;18.00;71.30;19.00;101836.00;;;;5091741;28;20176;-50
2022/10/19 06:26:41;;;;;;;1.93;1.80;;;18.00;71.30;19.00;101830.00;;;;5092259;28;20770;-50
2022/10/19 06:29:07;;;;;;;1.63;1.53;;;18.00;71.30;18.90;101837.00;;;;5090884;28;20631;-50
2022/10/19 06:31:35;;;;;;;2.20;2.00;;;17.90;71.20;18.90;101834.00;;;;5091732;28;20546;-51
2022/10/19 06:34:02;;;;;;;2.17;1.83;;;17.90;71.30;18.90;101832.00;;;;5090891;28;20237;-50
2022/10/19 06:36:29;;;;;;;2.07;1.87;;;18.00;71.40;18.90;101839.00;;;;5089497;28;20215;-50
2022/10/19 06:38:56;;;;;;;1.80;1.70;;;18.00;71.30;18.90;101848.00;;;;5089517;28;20246;-50
2022/10/19 06:41:22;;;;;;;2.93;1.93;;;17.90;71.20;18.90;101848.00;;;;5089548;28;20190;-50
2022/10/19 06:43:52;;;;;;;2.90;1.97;;;17.90;71.30;18.90;101848.00;;;;5090020;28;20199;-52
2022/10/19 06:46:19;;;;;;;2.60;1.70;;;17.90;71.30;18.90;101860.00;;;;5090126;28;20196;-50
2022/10/19 06:48:56;;;;;;;1.90;1.60;;;17.90;71.30;18.90;101873.00;;;;5091266;28;20545;-50
2022/10/19 06:51:22;;;;;;;1.83;1.60;;;17.80;71.20;18.80;101878.00;;;;5094722;28;20177;-50
2022/10/19 06:53:47;;;;;;;1.77;1.67;;;17.80;71.30;18.80;101870.00;;;;5094946;28;20168;-49
2022/10/19 06:56:13;;;;;;;2.73;2.00;;;17.80;71.30;18.80;101873.00;;;;5090918;28;20434;-50
2022/10/19 06:58:39;;;;;;;1.80;1.70;;;17.80;71.30;18.80;101870.00;;;;5089443;28;20646;-50
2022/10/19 07:01:09;;;;;;;2.07;1.90;;;17.80;71.30;18.80;101869.00;;;;5085455;28;20313;-50
2022/10/19 07:03:35;;;;;;;1.90;1.80;;;17.80;71.30;18.80;101862.00;;;;4963436;28;20179;-50
2022/10/19 07:06:02;;;;;;;2.20;1.90;;;17.80;71.30;18.80;101861.00;;;;5088869;28;20169;-50
2022/10/19 07:08:29;;;;;;;2.10;1.90;;;17.80;71.30;18.80;101857.00;;;;5088318;28;20224;-50
2022/10/19 07:11:00;;;;;;;1.70;1.60;;;17.80;71.30;18.80;101860.00;;;;5088402;28;20180;-49
2022/10/19 07:13:27;;;;;;;1.87;1.77;;;17.80;71.30;18.80;101858.00;;;;5089523;28;20161;-52
2022/10/19 07:16:05;;;;;;;1.90;1.80;;;17.80;71.30;18.80;101854.00;;;;5090188;28;20213;-51
2022/10/19 07:18:32;;;;;;;1.87;1.77;;;17.80;71.30;18.70;101850.00;;;;5089757;28;20280;-51
2022/10/19 07:21:00;;;;;;;1.80;1.70;;;17.80;71.30;18.70;101852.00;;;;5089584;28;20226;-50
2022/10/19 07:23:26;;;;;;;1.60;1.50;;;17.80;71.40;18.70;101862.00;;;;5089589;28;20186;-52
2022/10/19 07:25:54;;;;;;;1.80;1.70;;;17.70;71.30;18.70;101877.00;;;;5088496;28;20727;-51
2022/10/19 07:28:20;;;;;;;2.03;1.83;;;17.70;71.30;18.70;101884.00;;;;5089669;28;20192;-51
2022/10/19 07:30:46;;;;;;;2.03;1.60;;;17.70;71.40;18.70;101869.00;;;;5089287;28;20177;-50
2022/10/19 07:33:12;;;;;;;1.70;1.60;;;17.70;71.40;18.70;101864.00;;;;5089388;28;20587;-50
2022/10/19 07:35:37;;;;;;;1.70;1.60;;;17.70;71.30;18.60;101872.00;;;;5089081;28;20669;-50
2022/10/19 07:38:03;;;;;;;1.63;1.53;;;17.70;71.40;18.60;101875.00;;;;5080666;28;20232;-50
2022/10/19 07:40:30;;;;;;;2.00;1.87;;;17.70;71.50;18.60;101878.00;;;;5075890;28;20177;-50
2022/10/19 07:42:56;;;;;;;2.50;1.80;;;17.60;71.50;18.60;101879.00;;;;5098135;28;20173;-50
2022/10/19 07:45:22;;;;;;;1.93;1.70;;;17.70;71.60;18.60;101887.00;;;;5091184;28;20181;-51
2022/10/19 07:47:48;;;;;;;1.67;1.57;;;17.60;71.60;18.60;101892.00;;;;5087605;28;20192;-51
2022/10/19 07:50:14;;;;;;;2.07;1.87;;;17.60;71.70;18.60;101888.00;;;;5087514;28;20180;-50
2022/10/19 07:52:39;;;;;;;1.77;1.67;;;17.60;72.00;18.60;101874.00;;;;5088029;28;20230;-49
2022/10/19 07:55:05;;;;;;;2.13;1.93;;;17.60;72.10;18.60;101875.00;;;;5086006;28;20609;-50
2022/10/19 07:57:31;;;;;;;2.27;1.97;;;17.60;72.10;18.60;101877.00;;;;5087815;28;20181;-50
2022/10/19 07:59:57;;;;;;;12.23;2.40;;;17.60;72.10;18.60;101884.00;;;;5086946;28;20197;-50
2022/10/19 08:02:23;;;;;;;2.70;2.00;;;17.70;72.20;18.60;101879.00;;;;5026293;28;20676;-50
2022/10/19 08:04:48;;;;;;;5.83;2.33;;;17.70;72.20;18.60;101879.00;;;;5087671;28;20182;-50
2022/10/19 08:07:14;;;;;;;7.30;2.13;;;17.70;72.30;18.60;101878.00;;;;5085514;28;20184;-50
2022/10/19 08:09:40;;;;;;;2.37;2.00;;;17.60;72.10;18.60;101881.00;;;;5087725;28;20622;-50
2022/10/19 08:12:06;;;;;;;4.93;2.20;;;17.60;72.20;18.60;101880.00;;;;5088673;28;20250;-50
2022/10/19 08:14:31;;;;;;;6.20;2.00;;;17.60;72.20;18.50;101880.00;;;;5088206;28;20215;-51
2022/10/19 08:16:57;;;;;;;4.20;2.03;;;17.50;72.10;18.50;101871.00;;;;5070068;28;20228;-50
2022/10/19 08:19:23;;;;;;;5.40;2.20;;;17.50;72.10;18.50;101865.00;;;;5087303;28;20199;-50
2022/10/19 08:21:49;;;;;;;3.60;2.10;;;17.60;72.20;18.50;101864.00;;;;5087257;28;20166;-49
2022/10/19 08:24:16;;;;;;;2.87;2.00;;;17.50;72.10;18.50;101859.00;;;;5088244;28;20161;-49
2022/10/19 08:26:41;;;;;;;2.40;2.20;;;17.50;72.10;18.50;101842.00;;;;5087136;28;20172;-50
2022/10/19 08:29:14;;;;;;;3.23;2.03;;;17.50;72.20;18.50;101850.00;;;;5087871;28;20256;-49
2022/10/19 08:31:41;;;;;;;2.80;2.00;;;17.50;72.20;18.50;101842.00;;;;5088001;28;20176;-50
2022/10/19 08:34:07;;;;;;;1.93;1.83;;;17.50;72.20;18.50;101846.00;;;;5086141;28;20206;-50
2022/10/19 08:36:34;;;;;;;3.30;2.00;;;17.50;72.10;18.50;101841.00;;;;5088151;28;20217;-51
2022/10/19 08:39:00;;;;;;;3.27;2.40;;;17.50;72.20;18.50;101842.00;;;;5085889;28;20267;-50
2022/10/19 08:41:36;;;;;;;3.13;2.00;;;17.50;72.20;18.50;101835.00;;;;5087963;28;20165;-50
2022/10/19 08:44:22;;;;;;;2.43;2.20;;;17.50;72.20;18.40;101835.00;;;;5088142;28;20176;-50
2022/10/19 08:47:37;;;;;;;2.80;2.20;;;17.50;72.20;18.40;101825.00;;;;5088423;28;20618;-51
2022/10/19 08:50:15;;;;;;;3.10;2.10;;;17.50;72.30;18.40;101833.00;;;;5087255;28;20802;-51
2022/10/19 08:52:41;;;;;;;2.73;2.00;;;17.50;72.30;18.40;101826.00;;;;5086814;28;20169;-51
2022/10/19 08:55:11;;;;;;;2.10;1.90;;;17.50;72.30;18.40;101812.00;;;;5087068;28;20215;-51
2022/10/19 08:58:05;;;;;;;2.37;2.00;;;17.50;72.30;18.40;101816.00;;;;5067219;28;20169;-50
2022/10/19 09:00:54;;;;;;;2.63;1.93;;;17.50;72.30;18.40;101818.00;;;;5070992;28;20180;-50
2022/10/19 09:03:43;;;;;;;3.17;2.10;;;17.50;72.30;18.40;101811.00;;;;5088132;28;20161;-50
2022/10/19 09:06:27;;;;;;;2.30;2.10;;;17.50;72.40;18.40;101814.00;;;;5088558;28;20545;-49
2022/10/19 09:08:54;;;;;;;3.07;2.10;;;17.50;72.40;18.30;101819.00;;;;5089421;28;20203;-49
2022/10/19 09:11:27;;;;;;;2.67;2.00;;;17.50;72.50;18.40;101796.00;;;;5087184;28;20275;-50
2022/10/19 09:14:23;;;;;;;2.83;2.00;;;17.50;72.50;18.40;101808.00;;;;5086873;28;20184;-51
2022/10/19 09:16:49;;;;;;;2.40;2.20;;;17.50;72.50;18.30;101795.00;;;;5074234;28;20580;-50
2022/10/19 09:19:24;;;;;;;3.17;2.20;;;17.50;72.40;18.40;101803.00;;;;5090071;28;20189;-51
2022/10/19 09:21:59;;;;;;;2.67;2.30;;;17.50;72.50;18.40;101798.00;;;;5091029;28;20163;-50
2022/10/19 09:24:29;;;;;;;2.63;2.10;;;17.50;72.50;18.30;101791.00;;;;5091158;28;20156;-50
2022/10/19 09:26:59;;;;;;;3.47;2.00;;;17.50;72.50;18.30;101802.00;;;;5092193;28;20175;-50
2022/10/19 09:29:39;;;;;;;2.30;1.90;;;17.50;72.50;18.40;101796.00;;;;5090617;28;20902;-50
2022/10/19 09:32:21;;;;;;;2.47;2.10;;;17.50;72.60;18.40;101794.00;;;;5090859;28;20745;-50
2022/10/19 09:34:55;;;;;;;3.90;2.30;;;17.50;72.70;18.40;101796.00;;;;5090539;28;20165;-50
2022/10/19 09:37:21;;;;;;;2.23;2.03;;;17.50;72.70;18.40;101800.00;;;;5090920;28;20687;-50
2022/10/19 09:39:47;;;;;;;2.53;1.87;;;17.50;72.70;18.40;101798.00;;;;5090190;28;20188;-51
2022/10/19 09:42:29;;;;;;;2.47;2.03;;;17.50;72.80;18.40;101794.00;;;;5091433;28;20237;-50
2022/10/19 09:44:55;;;;;;;2.40;2.00;;;17.50;72.90;18.40;101793.00;;;;5091695;28;20266;-50
2022/10/19 09:47:31;;;;;;;2.57;1.90;;;17.50;72.90;18.40;101793.00;;;;5090267;28;20173;-50
2022/10/19 09:50:16;;;;;;;3.97;2.20;;;17.50;72.90;18.40;101783.00;;;;5093760;28;20164;-50
2022/10/19 09:52:43;;;;;;;2.60;1.93;;;17.60;73.10;18.40;101785.00;;;;5091744;28;20176;-50
2022/10/19 09:55:34;;;;;;;3.33;2.10;;;17.60;73.10;18.40;101781.00;;;;5091863;28;20199;-50
2022/10/19 09:58:12;;;;;;;2.10;1.90;;;17.50;73.10;18.40;101783.00;;;;5090351;28;20198;-50
2022/10/19 10:00:41;;;;;;;2.70;2.00;;;17.50;74.00;18.40;101783.00;;;;5091394;28;20175;-51
2022/10/19 10:03:10;;;;;;;2.10;1.90;;;17.60;73.40;18.40;101785.00;;;;5089896;28;20161;-51
2022/10/19 10:05:38;;;;;;;2.57;2.00;;;17.50;73.30;18.40;101766.00;;;;5056508;28;20200;-51
2022/10/19 10:08:10;;;;;;;2.90;2.00;;;17.50;73.50;18.40;101780.00;;;;5089785;28;20201;-51
2022/10/19 10:10:37;;;;;;;3.37;2.00;;;17.60;73.70;18.40;101789.00;;;;5090706;28;20195;-51
2022/10/19 10:13:03;;;;;;;5.07;2.10;;;17.50;73.60;18.40;101798.00;;;;5089588;28;20176;-51
2022/10/19 10:15:42;;;;;;;3.63;2.00;;;17.50;73.70;18.40;101776.00;;;;5089600;28;20211;-50
2022/10/19 10:18:12;;;;;;;3.30;2.10;;;17.50;73.80;18.40;101776.00;;;;5099141;28;20212;-50
2022/10/19 10:20:39;;;;;;;2.37;1.90;;;17.50;73.70;18.40;101773.00;;;;5097837;28;20191;-50
2022/10/19 10:23:05;;;;;;;2.80;2.07;;;17.50;73.80;18.40;101781.00;;;;5089412;28;20604;-50
2022/10/19 10:25:33;;;;;;;2.40;2.00;;;17.50;73.80;18.40;101778.00;;;;5090576;28;20177;-50
2022/10/19 10:28:18;;;;;;;5.63;1.97;;;17.50;73.90;18.40;101781.00;;;;5089311;28;20207;-50
2022/10/19 10:30:45;;;;;;;5.20;2.00;;;17.50;74.10;18.40;101786.00;;;;5089219;28;20475;-50
2022/10/19 10:33:15;;;;;;;2.37;1.90;;;17.50;74.20;18.40;101782.00;;;;5089237;28;20194;-51
2022/10/19 10:35:41;;;;;;;2.63;2.10;;;17.50;74.00;18.40;101774.00;;;;5089192;28;20289;-50
2022/10/19 10:38:15;;;;;;;3.40;2.10;;;17.60;74.20;18.50;101774.00;;;;5072364;28;20844;-52
2022/10/19 10:40:48;;;;;;;2.47;1.90;;;17.60;74.50;18.40;101763.00;;;;5090367;28;20188;-52
2022/10/19 10:43:15;;;;;;;2.27;1.90;;;17.60;74.60;18.50;101760.00;;;;5089086;28;20566;-52
2022/10/19 10:45:45;;;;;;;3.27;1.83;;;17.60;74.40;18.50;101754.00;;;;5089802;28;20187;-50
2022/10/19 10:48:22;;;;;;;2.90;2.00;;;17.60;74.50;18.50;101750.00;;;;5072994;28;20200;-50
2022/10/19 10:50:50;;;;;;;1.73;1.63;;;17.70;74.90;18.50;101746.00;;;;5088833;28;20217;-51
2022/10/19 10:53:38;;;;;;;3.37;1.83;;;17.60;74.70;18.50;101744.00;;;;5088923;28;20198;-51
2022/10/19 10:56:09;;;;;;;2.00;1.80;;;17.70;74.90;18.50;101743.00;;;;5090380;28;20241;-50
2022/10/19 10:58:46;;;;;;;1.93;1.80;;;17.70;74.80;18.50;101741.00;;;;5089247;28;20196;-50